Terminal Aerodrome Forecast
Issued by NWS

Home | Current Version | Previous Version | Text Only | Print | Product List | Glossary On
Versions: 1 2 3 4 5 6 7 8 9 10 11 12 13 14 15 16 17
000
FTUS45 KABQ 202340
TAFSAF
TAF
KSAF 202340Z 2100/2124 25015G25KT P6SM VCSH SCT040 BKN060
     FM210100 23008KT 2SM -SN BR SCT019 OVC035
     FM211000 21008G15KT 1 1/2SM -SN OVC015
      TEMPO 2112/2116 3/4SM -SN OVC010
     FM211700 24014G20KT 1/2SM SN OVC015
     FM212100 28023G31KT P6SM OVC050=

USA.gov is the U.S. government's official web portal to all federal, state and local government web resources and services.